Weather History for Columbia Airport, CA

Change the Weather History Date:

Sunday, April 13, 2014

  Actual Average (KMOD) Record (KMOD)
Temperature  
Mean Temperature 56 °F -  
Max Temperature 71 °F 74 °F 95 °F (1985)
Min Temperature 42 °F 49 °F 38 °F (1945)
Degree Days  
Heating Degree Days 8 5  
Month to date heating degree days 72  
Since 1 July heating degree days 2077  
Cooling Degree Days 0 1  
Month to date cooling degree days 9  
Year to date cooling degree days 14  
Growing Degree Days 6 (Base 50)    
Moisture  
Dew Point 47 °F    
Average Humidity 73    
Maximum Humidity 100    
Minimum Humidity 46    
Precipitation  
Precipitation 0.00 in 0.03 in 0.90 in (2012)
Month to date precipitation 0.48  
Year to date precipitation 7.51  
Since 1 July precipitation 11.87  
Snow  
Snow 0.00 in - - ()
Month to date snowfall  
Since 1 July snowfall  
Snow Depth -    
Sea Level Pressure  
Sea Level Pressure 29.97 in    
Wind  
Wind Speed 2 mph (West)    
Max Wind Speed 8 mph    
Max Gust Speed -    
Visibility 10 miles    
Events      
T = Trace of Precipitation, MM = Missing Value Source: NWS Daily Summary

Daily Weather History Graph

Daily Weather History Graph

Search for Another Location

Airport:

Trip Planner

Search our weather history database for the weather conditions in past years. The results will help you decide how hot, cold, wet, or windy it might be!

Date:

Astronomy

Apr. 13, 2014 Rise Set
Actual Time 6:28 AM PDT 7:35 PM PDT
Civil Twilight 6:01 AM PDT 8:03 PM PDT
Nautical Twilight 5:29 AM PDT 8:35 PM PDT
Astronomical Twilight 4:56 AM PDT 9:09 PM PDT
Moon 6:20 PM PDT (4/13) 5:28 AM PDT (4/13)
Length of Visible Light 14h 01m
Length of Day
13h 07m
Waxing Gibbous, 97% of the Moon is Illuminated
Apr 13
Waxing Gibbous
Apr 15
Full
Apr 22
Last Quarter
Apr 28
New
May 6
First Quarter

Hourly Weather History & Observations

Time (PDT) Temp. Dew Point Humidity Pressure Visibility Wind Dir Wind Speed Gust Speed Precip Events Conditions
12:15 AM 48.2 °F 46.4 °F 93% 29.92 in 10.0 mi NNE 3.5 mph - N/A   Clear
12:35 AM 46.4 °F 46.4 °F 100% 29.92 in 10.0 mi Calm Calm - N/A   Clear
12:55 AM 46.4 °F 44.6 °F 93% 29.91 in 10.0 mi Calm Calm - N/A   Clear
1:15 AM 46.4 °F 44.6 °F 93% 29.92 in 10.0 mi Calm Calm - N/A   Clear
1:35 AM 46.4 °F 44.6 °F 93% 29.92 in 10.0 mi Calm Calm - N/A   Clear
1:55 AM 46.4 °F 44.6 °F 93% 29.91 in 10.0 mi Calm Calm - N/A   Clear
2:15 AM 46.4 °F 44.6 °F 93% 29.91 in 10.0 mi Calm Calm - N/A   Clear
2:35 AM 46.4 °F 44.6 °F 93% 29.91 in 10.0 mi Calm Calm - N/A   Clear
2:55 AM 46.4 °F 44.6 °F 93% 29.91 in 10.0 mi Calm Calm - N/A   Clear
3:15 AM 46.4 °F 44.6 °F 93% 29.91 in 10.0 mi Calm Calm - N/A   Clear
3:35 AM 44.6 °F 42.8 °F 93% 29.92 in 10.0 mi Calm Calm - N/A   Clear
3:55 AM 44.6 °F 42.8 °F 93% 29.92 in 10.0 mi Calm Calm - N/A   Clear
4:15 AM 44.6 °F 42.8 °F 93% 29.92 in 10.0 mi Calm Calm - N/A   Clear
4:35 AM 44.6 °F 42.8 °F 93% 29.92 in 10.0 mi Calm Calm - N/A   Clear
4:55 AM 44.6 °F 42.8 °F 93% 29.92 in 10.0 mi Calm Calm - N/A   Clear
5:15 AM 44.6 °F 42.8 °F 93% 29.92 in 10.0 mi Calm Calm - N/A   Clear
5:35 AM 44.6 °F 42.8 °F 93% 29.92 in 10.0 mi Calm Calm - N/A   Clear
5:55 AM 44.6 °F 42.8 °F 93% 29.93 in 10.0 mi Calm Calm - N/A   Clear
6:15 AM 42.8 °F 41.0 °F 93% 29.93 in 10.0 mi Calm Calm - N/A   Clear
6:35 AM 42.8 °F 41.0 °F 93% 29.94 in 10.0 mi Calm Calm - N/A   Clear
6:55 AM 44.6 °F 44.6 °F 100% 29.95 in 10.0 mi Calm Calm - N/A   Clear
7:15 AM 46.4 °F 44.6 °F 93% 29.97 in 10.0 mi Calm Calm - N/A   Clear
7:35 AM 48.2 °F 46.4 °F 93% 29.97 in 10.0 mi Calm Calm - N/A   Clear
8:15 AM 55.4 °F 44.6 °F 67% 29.98 in 10.0 mi Calm Calm - N/A   Clear
8:35 AM 59.0 °F 44.6 °F 59% 29.98 in 10.0 mi Calm Calm - N/A   Clear
8:55 AM 60.8 °F 46.4 °F 59% 29.98 in 10.0 mi Calm Calm - N/A   Clear
9:15 AM 62.6 °F 46.4 °F 55% 29.98 in 10.0 mi Calm Calm - N/A   Clear
9:35 AM 62.6 °F 48.2 °F 59% 29.99 in 10.0 mi WSW 5.8 mph - N/A   Clear
9:55 AM 64.4 °F 46.4 °F 52% 29.99 in 10.0 mi SW 4.6 mph - N/A   Clear
10:15 AM 64.4 °F 44.6 °F 49% 29.99 in 10.0 mi WSW 4.6 mph - N/A   Clear
10:35 AM 64.4 °F 48.2 °F 56% 30.00 in 10.0 mi WSW 5.8 mph - N/A   Clear
10:55 AM 66.2 °F 48.2 °F 52% 30.00 in 10.0 mi West 3.5 mph - N/A   Clear
11:15 AM 68.0 °F 48.2 °F 49% 30.00 in 10.0 mi West 5.8 mph - N/A   Clear
11:35 AM 66.2 °F 48.2 °F 52% 30.00 in 10.0 mi SW 4.6 mph - N/A   Clear
11:55 AM 66.2 °F 48.2 °F 52% 30.00 in 10.0 mi SW 5.8 mph - N/A   Clear
12:15 PM 68.0 °F 50.0 °F 52% 30.00 in 10.0 mi SSW 4.6 mph - N/A   Clear
12:35 PM 68.0 °F 50.0 °F 52% 30.00 in 10.0 mi WSW 4.6 mph - N/A   Clear
12:55 PM 68.0 °F 48.2 °F 49% 30.00 in 10.0 mi WSW 6.9 mph - N/A   Clear
1:15 PM 68.0 °F 50.0 °F 52% 30.00 in 10.0 mi WNW 5.8 mph - N/A   Clear
1:35 PM 69.8 °F 51.8 °F 53% 30.00 in 10.0 mi SW 6.9 mph - N/A   Clear
1:55 PM 69.8 °F 53.6 °F 56% 30.00 in 10.0 mi West 4.6 mph - N/A   Clear
2:15 PM 69.8 °F 53.6 °F 56% 29.99 in 10.0 mi SW 4.6 mph - N/A   Clear
2:35 PM 71.6 °F 53.6 °F 53% 29.99 in 10.0 mi WNW 4.6 mph - N/A   Clear
2:55 PM 69.8 °F 53.6 °F 56% 29.99 in 10.0 mi West 5.8 mph - N/A   Clear
3:15 PM 69.8 °F 53.6 °F 56% 29.98 in 10.0 mi SW 6.9 mph - N/A   Clear
3:35 PM 71.6 °F 51.8 °F 50% 29.98 in 10.0 mi South 3.5 mph - N/A   Clear
3:55 PM 71.6 °F 51.8 °F 50% 29.98 in 10.0 mi WSW 4.6 mph - N/A   Clear
4:15 PM 71.6 °F 50.0 °F 46% 29.98 in 10.0 mi SW 6.9 mph - N/A   Clear
4:35 PM 69.8 °F 51.8 °F 53% 29.97 in 10.0 mi WSW 5.8 mph - N/A   Clear
4:55 PM 69.8 °F 53.6 °F 56% 29.97 in 10.0 mi West 4.6 mph - N/A   Clear
5:15 PM 68.0 °F 51.8 °F 56% 29.97 in 10.0 mi West 5.8 mph - N/A   Clear
5:35 PM 68.0 °F 50.0 °F 52% 29.96 in 10.0 mi West 5.8 mph - N/A   Clear
5:55 PM 68.0 °F 50.0 °F 52% 29.97 in 10.0 mi West 8.1 mph - N/A   Clear
6:15 PM 66.2 °F 51.8 °F 60% 29.97 in 10.0 mi West 4.6 mph - N/A   Clear
6:35 PM 66.2 °F 51.8 °F 60% 29.97 in 10.0 mi WNW 4.6 mph - N/A   Clear
6:55 PM 64.4 °F 50.0 °F 59% 29.97 in 10.0 mi NW 3.5 mph - N/A   Clear
7:15 PM 62.6 °F 50.0 °F 63% 29.98 in 10.0 mi Calm Calm - N/A   Clear
7:35 PM 59.0 °F 50.0 °F 72% 29.98 in 10.0 mi Calm Calm - N/A   Clear
7:55 PM 57.2 °F 50.0 °F 77% 29.98 in 10.0 mi North 3.5 mph - N/A   Clear
8:15 PM 57.2 °F 50.0 °F 77% 29.99 in 10.0 mi Calm Calm - N/A   Clear
8:35 PM 55.4 °F 50.0 °F 82% 30.00 in 10.0 mi Calm Calm - N/A   Clear
8:55 PM 55.4 °F 50.0 °F 82% 30.00 in 10.0 mi NE 3.5 mph - N/A   Clear
9:15 PM 53.6 °F 48.2 °F 82% 30.01 in 10.0 mi NE 3.5 mph - N/A   Clear
9:35 PM 53.6 °F 48.2 °F 82% 30.01 in 10.0 mi Calm Calm - N/A   Clear
9:55 PM 50.0 °F 46.4 °F 87% 30.01 in 10.0 mi Calm Calm - N/A   Clear
10:15 PM 50.0 °F 46.4 °F 87% 30.01 in 10.0 mi Calm Calm - N/A   Clear
10:35 PM 48.2 °F 46.4 °F 93% 30.01 in 10.0 mi Calm Calm - N/A   Clear
10:55 PM 48.2 °F 46.4 °F 93% 30.02 in 10.0 mi Calm Calm - N/A   Clear
11:15 PM 48.2 °F 46.4 °F 93% 30.02 in 10.0 mi Calm Calm - N/A   Clear
11:35 PM 48.2 °F 44.6 °F 87% 30.02 in 10.0 mi Calm Calm - N/A   Clear
11:55 PM 46.4 °F 44.6 °F 93% 30.02 in 10.0 mi Calm Calm - N/A   Clear